sensor_id;sensor_type;location;lat;lon;timestamp;temperature;humidity
4757;DHT22;2392;52.578;13.426;2023-06-26T00:00:04;20.70;99.90
4757;DHT22;2392;52.578;13.426;2023-06-26T00:02:32;20.70;99.90
4757;DHT22;2392;52.578;13.426;2023-06-26T00:04:59;20.70;99.90
4757;DHT22;2392;52.578;13.426;2023-06-26T00:07:28;20.70;99.90
4757;DHT22;2392;52.578;13.426;2023-06-26T00:09:57;20.60;99.90
4757;DHT22;2392;52.578;13.426;2023-06-26T00:12:24;20.60;99.90
4757;DHT22;2392;52.578;13.426;2023-06-26T00:14:52;20.50;99.90
4757;DHT22;2392;52.578;13.426;2023-06-26T00:17:19;20.50;99.90
4757;DHT22;2392;52.578;13.426;2023-06-26T00:19:46;20.40;99.90
4757;DHT22;2392;52.578;13.426;2023-06-26T00:22:13;20.40;99.90
4757;DHT22;2392;52.578;13.426;2023-06-26T00:24:40;20.40;99.90
4757;DHT22;2392;52.578;13.426;2023-06-26T00:27:08;20.40;99.90
4757;DHT22;2392;52.578;13.426;2023-06-26T00:29:35;20.40;99.90
4757;DHT22;2392;52.578;13.426;2023-06-26T00:32:04;20.40;99.90
4757;DHT22;2392;52.578;13.426;2023-06-26T00:34:33;20.40;99.90
4757;DHT22;2392;52.578;13.426;2023-06-26T00:37:00;20.40;99.90
4757;DHT22;2392;52.578;13.426;2023-06-26T00:39:27;20.40;99.90
4757;DHT22;2392;52.578;13.426;2023-06-26T00:41:53;20.40;99.90
4757;DHT22;2392;52.578;13.426;2023-06-26T00:44:22;20.40;99.90
4757;DHT22;2392;52.578;13.426;2023-06-26T00:46:50;20.40;99.90
4757;DHT22;2392;52.578;13.426;2023-06-26T00:49:17;20.40;99.90
4757;DHT22;2392;52.578;13.426;2023-06-26T00:51:45;20.40;99.90
4757;DHT22;2392;52.578;13.426;2023-06-26T00:54:12;20.40;99.90
4757;DHT22;2392;52.578;13.426;2023-06-26T00:56:45;20.40;99.90
4757;DHT22;2392;52.578;13.426;2023-06-26T00:59:13;20.40;99.90
4757;DHT22;2392;52.578;13.426;2023-06-26T01:01:41;20.40;99.90
4757;DHT22;2392;52.578;13.426;2023-06-26T01:04:10;20.40;99.90
4757;DHT22;2392;52.578;13.426;2023-06-26T01:06:45;20.40;99.90
4757;DHT22;2392;52.578;13.426;2023-06-26T01:09:16;20.40;99.90
4757;DHT22;2392;52.578;13.426;2023-06-26T01:11:44;20.30;99.90
4757;DHT22;2392;52.578;13.426;2023-06-26T01:14:11;20.30;99.90
4757;DHT22;2392;52.578;13.426;2023-06-26T01:16:38;20.30;99.90
4757;DHT22;2392;52.578;13.426;2023-06-26T01:19:10;20.40;99.90
4757;DHT22;2392;52.578;13.426;2023-06-26T01:21:42;20.40;99.90
4757;DHT22;2392;52.578;13.426;2023-06-26T01:24:15;20.40;99.90
4757;DHT22;2392;52.578;13.426;2023-06-26T01:26:51;20.40;99.90
4757;DHT22;2392;52.578;13.426;2023-06-26T01:29:19;20.40;99.90
4757;DHT22;2392;52.578;13.426;2023-06-26T01:31:47;20.40;99.90
4757;DHT22;2392;52.578;13.426;2023-06-26T01:34:15;20.40;99.90
4757;DHT22;2392;52.578;13.426;2023-06-26T01:36:44;20.40;99.90
4757;DHT22;2392;52.578;13.426;2023-06-26T01:39:15;20.40;99.90
4757;DHT22;2392;52.578;13.426;2023-06-26T01:41:43;20.40;99.90
4757;DHT22;2392;52.578;13.426;2023-06-26T01:44:26;20.40;99.90
4757;DHT22;2392;52.578;13.426;2023-06-26T01:47:01;20.40;99.90
4757;DHT22;2392;52.578;13.426;2023-06-26T01:49:38;20.40;99.90
4757;DHT22;2392;52.578;13.426;2023-06-26T01:52:11;20.40;99.90
4757;DHT22;2392;52.578;13.426;2023-06-26T01:54:46;20.40;99.90
4757;DHT22;2392;52.578;13.426;2023-06-26T01:57:14;20.40;99.90
4757;DHT22;2392;52.578;13.426;2023-06-26T01:59:44;20.40;99.90
4757;DHT22;2392;52.578;13.426;2023-06-26T02:02:13;20.40;99.90
4757;DHT22;2392;52.578;13.426;2023-06-26T02:04:40;20.40;99.90
4757;DHT22;2392;52.578;13.426;2023-06-26T02:07:07;20.40;99.90
4757;DHT22;2392;52.578;13.426;2023-06-26T02:09:35;20.40;99.90
4757;DHT22;2392;52.578;13.426;2023-06-26T02:12:03;20.40;99.90
4757;DHT22;2392;52.578;13.426;2023-06-26T02:14:30;20.30;99.90
4757;DHT22;2392;52.578;13.426;2023-06-26T02:16:58;20.30;99.90
4757;DHT22;2392;52.578;13.426;2023-06-26T02:19:25;20.20;99.90
4757;DHT22;2392;52.578;13.426;2023-06-26T02:21:53;20.10;99.90
4757;DHT22;2392;52.578;13.426;2023-06-26T02:24:23;20.10;99.90
4757;DHT22;2392;52.578;13.426;2023-06-26T02:26:49;20.10;99.90
4757;DHT22;2392;52.578;13.426;2023-06-26T02:29:16;20.10;99.90
4757;DHT22;2392;52.578;13.426;2023-06-26T02:31:43;20.10;99.90
4757;DHT22;2392;52.578;13.426;2023-06-26T02:34:12;20.10;99.90
4757;DHT22;2392;52.578;13.426;2023-06-26T02:36:39;20.10;99.90
4757;DHT22;2392;52.578;13.426;2023-06-26T02:39:06;20.10;99.90
4757;DHT22;2392;52.578;13.426;2023-06-26T02:41:33;20.00;99.90
4757;DHT22;2392;52.578;13.426;2023-06-26T02:44:01;20.00;99.90
4757;DHT22;2392;52.578;13.426;2023-06-26T02:46:28;20.00;99.90
4757;DHT22;2392;52.578;13.426;2023-06-26T02:48:56;20.00;99.90
4757;DHT22;2392;52.578;13.426;2023-06-26T02:51:24;20.00;99.90
4757;DHT22;2392;52.578;13.426;2023-06-26T02:53:53;20.00;99.90
4757;DHT22;2392;52.578;13.426;2023-06-26T02:56:20;20.00;99.90
4757;DHT22;2392;52.578;13.426;2023-06-26T02:58:47;20.00;99.90
4757;DHT22;2392;52.578;13.426;2023-06-26T03:01:14;20.00;99.90
4757;DHT22;2392;52.578;13.426;2023-06-26T03:03:41;20.00;99.90
4757;DHT22;2392;52.578;13.426;2023-06-26T03:06:14;20.00;99.90
4757;DHT22;2392;52.578;13.426;2023-06-26T03:08:43;20.00;99.90
4757;DHT22;2392;52.578;13.426;2023-06-26T03:11:11;20.00;99.90
4757;DHT22;2392;52.578;13.426;2023-06-26T03:13:39;20.00;99.90
4757;DHT22;2392;52.578;13.426;2023-06-26T03:16:06;20.00;99.90
4757;DHT22;2392;52.578;13.426;2023-06-26T03:18:33;20.00;99.90
4757;DHT22;2392;52.578;13.426;2023-06-26T03:21:00;20.00;99.90
4757;DHT22;2392;52.578;13.426;2023-06-26T03:23:27;20.00;99.90
4757;DHT22;2392;52.578;13.426;2023-06-26T03:25:56;20.00;99.90
4757;DHT22;2392;52.578;13.426;2023-06-26T03:28:29;20.00;99.90
4757;DHT22;2392;52.578;13.426;2023-06-26T03:30:56;20.00;99.90
4757;DHT22;2392;52.578;13.426;2023-06-26T03:33:25;19.90;99.90
4757;DHT22;2392;52.578;13.426;2023-06-26T03:35:53;19.90;99.90
4757;DHT22;2392;52.578;13.426;2023-06-26T03:38:21;19.90;99.90
4757;DHT22;2392;52.578;13.426;2023-06-26T03:40:51;19.90;99.90
4757;DHT22;2392;52.578;13.426;2023-06-26T03:43:20;19.80;99.90
4757;DHT22;2392;52.578;13.426;2023-06-26T03:46:09;19.80;99.90
4757;DHT22;2392;52.578;13.426;2023-06-26T03:48:36;19.90;99.90
4757;DHT22;2392;52.578;13.426;2023-06-26T03:51:04;19.90;99.90
4757;DHT22;2392;52.578;13.426;2023-06-26T03:53:32;19.90;99.90
4757;DHT22;2392;52.578;13.426;2023-06-26T03:55:59;20.00;99.90
4757;DHT22;2392;52.578;13.426;2023-06-26T03:58:28;20.00;99.90
4757;DHT22;2392;52.578;13.426;2023-06-26T04:00:55;20.00;99.90
4757;DHT22;2392;52.578;13.426;2023-06-26T04:03:24;20.00;99.90
4757;DHT22;2392;52.578;13.426;2023-06-26T04:05:51;20.00;99.90
4757;DHT22;2392;52.578;13.426;2023-06-26T04:08:18;20.00;99.90
4757;DHT22;2392;52.578;13.426;2023-06-26T04:10:46;20.00;99.90
4757;DHT22;2392;52.578;13.426;2023-06-26T04:13:14;20.00;99.90
4757;DHT22;2392;52.578;13.426;2023-06-26T04:15:42;20.00;99.90
4757;DHT22;2392;52.578;13.426;2023-06-26T04:18:09;20.10;99.90
4757;DHT22;2392;52.578;13.426;2023-06-26T04:20:39;20.10;99.90
4757;DHT22;2392;52.578;13.426;2023-06-26T04:23:07;20.20;99.90
4757;DHT22;2392;52.578;13.426;2023-06-26T04:25:34;20.20;99.90
4757;DHT22;2392;52.578;13.426;2023-06-26T04:28:06;20.30;99.90
4757;DHT22;2392;52.578;13.426;2023-06-26T04:30:33;20.30;99.90
4757;DHT22;2392;52.578;13.426;2023-06-26T04:33:01;20.40;99.90
4757;DHT22;2392;52.578;13.426;2023-06-26T04:35:29;20.40;99.90
4757;DHT22;2392;52.578;13.426;2023-06-26T04:37:56;20.50;99.90
4757;DHT22;2392;52.578;13.426;2023-06-26T04:40:23;20.60;99.90
4757;DHT22;2392;52.578;13.426;2023-06-26T04:42:50;20.70;99.90
4757;DHT22;2392;52.578;13.426;2023-06-26T04:45:16;20.70;99.90
4757;DHT22;2392;52.578;13.426;2023-06-26T04:47:43;20.80;99.90
4757;DHT22;2392;52.578;13.426;2023-06-26T04:50:12;20.80;99.90
4757;DHT22;2392;52.578;13.426;2023-06-26T04:52:39;20.90;99.90
4757;DHT22;2392;52.578;13.426;2023-06-26T04:55:06;21.00;99.90
4757;DHT22;2392;52.578;13.426;2023-06-26T04:57:33;21.00;99.90
4757;DHT22;2392;52.578;13.426;2023-06-26T05:00:00;21.10;99.90
4757;DHT22;2392;52.578;13.426;2023-06-26T05:02:27;21.10;99.90
4757;DHT22;2392;52.578;13.426;2023-06-26T05:04:55;21.10;99.90
4757;DHT22;2392;52.578;13.426;2023-06-26T05:07:23;21.20;99.90
4757;DHT22;2392;52.578;13.426;2023-06-26T05:09:50;21.20;99.90
4757;DHT22;2392;52.578;13.426;2023-06-26T05:12:17;21.30;99.90
4757;DHT22;2392;52.578;13.426;2023-06-26T05:14:44;21.30;99.90
4757;DHT22;2392;52.578;13.426;2023-06-26T05:17:14;21.40;99.90
4757;DHT22;2392;52.578;13.426;2023-06-26T05:19:41;21.50;99.90
4757;DHT22;2392;52.578;13.426;2023-06-26T05:22:09;21.60;99.90
4757;DHT22;2392;52.578;13.426;2023-06-26T05:24:38;21.70;99.90
4757;DHT22;2392;52.578;13.426;2023-06-26T05:27:06;21.80;99.90
4757;DHT22;2392;52.578;13.426;2023-06-26T05:29:34;21.90;99.90
4757;DHT22;2392;52.578;13.426;2023-06-26T05:32:01;22.00;99.90
4757;DHT22;2392;52.578;13.426;2023-06-26T05:34:29;22.10;99.90
4757;DHT22;2392;52.578;13.426;2023-06-26T05:36:58;22.20;99.90
4757;DHT22;2392;52.578;13.426;2023-06-26T05:39:26;22.30;99.90
4757;DHT22;2392;52.578;13.426;2023-06-26T05:41:55;22.40;99.90
4757;DHT22;2392;52.578;13.426;2023-06-26T05:44:22;22.50;99.90
4757;DHT22;2392;52.578;13.426;2023-06-26T05:46:49;22.50;99.90
4757;DHT22;2392;52.578;13.426;2023-06-26T05:49:16;22.60;99.90
4757;DHT22;2392;52.578;13.426;2023-06-26T05:51:44;22.60;99.90
4757;DHT22;2392;52.578;13.426;2023-06-26T05:54:12;22.60;99.90
4757;DHT22;2392;52.578;13.426;2023-06-26T05:56:39;22.60;99.90
4757;DHT22;2392;52.578;13.426;2023-06-26T05:59:08;22.60;99.90
4757;DHT22;2392;52.578;13.426;2023-06-26T06:01:35;22.70;99.90
4757;DHT22;2392;52.578;13.426;2023-06-26T06:04:02;22.70;99.90
4757;DHT22;2392;52.578;13.426;2023-06-26T06:06:29;22.70;99.90
4757;DHT22;2392;52.578;13.426;2023-06-26T06:08:56;22.70;99.90
4757;DHT22;2392;52.578;13.426;2023-06-26T06:11:23;22.80;99.90
4757;DHT22;2392;52.578;13.426;2023-06-26T06:13:50;22.80;99.90
4757;DHT22;2392;52.578;13.426;2023-06-26T06:16:18;22.80;99.90
4757;DHT22;2392;52.578;13.426;2023-06-26T06:18:45;22.90;99.90
4757;DHT22;2392;52.578;13.426;2023-06-26T06:21:12;22.90;99.90
4757;DHT22;2392;52.578;13.426;2023-06-26T06:23:39;22.90;99.90
4757;DHT22;2392;52.578;13.426;2023-06-26T06:26:06;23.00;99.90
4757;DHT22;2392;52.578;13.426;2023-06-26T06:28:33;23.00;99.90
4757;DHT22;2392;52.578;13.426;2023-06-26T06:31:00;23.10;99.90
4757;DHT22;2392;52.578;13.426;2023-06-26T06:33:28;23.10;99.90
4757;DHT22;2392;52.578;13.426;2023-06-26T06:35:55;23.10;99.90
4757;DHT22;2392;52.578;13.426;2023-06-26T06:38:22;23.20;99.90
4757;DHT22;2392;52.578;13.426;2023-06-26T06:40:49;23.20;99.90
4757;DHT22;2392;52.578;13.426;2023-06-26T06:43:16;23.30;99.90
4757;DHT22;2392;52.578;13.426;2023-06-26T06:45:44;23.30;99.90
4757;DHT22;2392;52.578;13.426;2023-06-26T06:48:11;23.40;99.90
4757;DHT22;2392;52.578;13.426;2023-06-26T06:50:39;23.50;99.90
4757;DHT22;2392;52.578;13.426;2023-06-26T06:53:07;23.50;99.90
4757;DHT22;2392;52.578;13.426;2023-06-26T06:55:34;23.60;99.90
4757;DHT22;2392;52.578;13.426;2023-06-26T06:58:01;23.60;99.90
4757;DHT22;2392;52.578;13.426;2023-06-26T07:00:28;23.70;99.90
4757;DHT22;2392;52.578;13.426;2023-06-26T07:02:57;23.70;99.90
4757;DHT22;2392;52.578;13.426;2023-06-26T07:05:25;23.80;99.90
4757;DHT22;2392;52.578;13.426;2023-06-26T07:07:54;23.90;99.90
4757;DHT22;2392;52.578;13.426;2023-06-26T07:10:21;23.90;99.90
4757;DHT22;2392;52.578;13.426;2023-06-26T07:12:48;24.00;99.90
4757;DHT22;2392;52.578;13.426;2023-06-26T07:15:15;24.10;99.90
4757;DHT22;2392;52.578;13.426;2023-06-26T07:17:42;24.10;99.90
4757;DHT22;2392;52.578;13.426;2023-06-26T07:20:10;24.20;99.90
4757;DHT22;2392;52.578;13.426;2023-06-26T07:22:41;24.20;99.90
4757;DHT22;2392;52.578;13.426;2023-06-26T07:25:11;24.30;99.90
4757;DHT22;2392;52.578;13.426;2023-06-26T07:27:39;24.30;99.90
4757;DHT22;2392;52.578;13.426;2023-06-26T07:30:07;24.40;99.90
4757;DHT22;2392;52.578;13.426;2023-06-26T07:32:35;24.50;99.90
4757;DHT22;2392;52.578;13.426;2023-06-26T07:35:02;24.50;99.90
4757;DHT22;2392;52.578;13.426;2023-06-26T07:37:30;24.60;99.90
4757;DHT22;2392;52.578;13.426;2023-06-26T07:39:57;24.60;99.90
4757;DHT22;2392;52.578;13.426;2023-06-26T07:42:25;24.70;99.90
4757;DHT22;2392;52.578;13.426;2023-06-26T07:44:52;24.80;99.90
4757;DHT22;2392;52.578;13.426;2023-06-26T07:47:19;24.80;99.90
4757;DHT22;2392;52.578;13.426;2023-06-26T07:49:46;24.80;99.90
4757;DHT22;2392;52.578;13.426;2023-06-26T07:52:14;24.90;99.90
4757;DHT22;2392;52.578;13.426;2023-06-26T07:54:41;25.00;99.90
4757;DHT22;2392;52.578;13.426;2023-06-26T07:57:08;25.00;99.90
4757;DHT22;2392;52.578;13.426;2023-06-26T07:59:38;25.10;99.90
4757;DHT22;2392;52.578;13.426;2023-06-26T08:02:06;25.10;99.90
4757;DHT22;2392;52.578;13.426;2023-06-26T08:04:33;25.20;99.90
4757;DHT22;2392;52.578;13.426;2023-06-26T08:07:01;25.30;99.90
4757;DHT22;2392;52.578;13.426;2023-06-26T08:09:29;25.40;99.90
4757;DHT22;2392;52.578;13.426;2023-06-26T08:11:57;25.40;99.90
4757;DHT22;2392;52.578;13.426;2023-06-26T08:14:24;25.50;99.90
4757;DHT22;2392;52.578;13.426;2023-06-26T08:16:52;25.60;99.90
4757;DHT22;2392;52.578;13.426;2023-06-26T08:19:20;25.70;99.90
4757;DHT22;2392;52.578;13.426;2023-06-26T08:21:47;25.70;99.90
4757;DHT22;2392;52.578;13.426;2023-06-26T08:24:14;25.80;99.90
4757;DHT22;2392;52.578;13.426;2023-06-26T08:26:45;25.80;99.90
4757;DHT22;2392;52.578;13.426;2023-06-26T08:29:12;25.90;99.90
4757;DHT22;2392;52.578;13.426;2023-06-26T08:31:40;25.90;99.90
4757;DHT22;2392;52.578;13.426;2023-06-26T08:34:08;25.90;99.90
4757;DHT22;2392;52.578;13.426;2023-06-26T08:36:35;26.00;99.90
4757;DHT22;2392;52.578;13.426;2023-06-26T08:39:02;26.00;99.90
4757;DHT22;2392;52.578;13.426;2023-06-26T08:41:30;26.00;99.90
4757;DHT22;2392;52.578;13.426;2023-06-26T08:43:57;26.10;99.90
4757;DHT22;2392;52.578;13.426;2023-06-26T08:46:24;26.20;99.90
4757;DHT22;2392;52.578;13.426;2023-06-26T08:48:55;26.20;99.90
4757;DHT22;2392;52.578;13.426;2023-06-26T08:51:25;26.30;99.90
4757;DHT22;2392;52.578;13.426;2023-06-26T08:53:57;26.30;99.90
4757;DHT22;2392;52.578;13.426;2023-06-26T08:56:25;26.30;99.90
4757;DHT22;2392;52.578;13.426;2023-06-26T08:58:54;26.40;99.90
4757;DHT22;2392;52.578;13.426;2023-06-26T09:01:22;26.50;99.90
4757;DHT22;2392;52.578;13.426;2023-06-26T09:03:50;26.50;99.90
4757;DHT22;2392;52.578;13.426;2023-06-26T09:06:18;26.60;99.90
4757;DHT22;2392;52.578;13.426;2023-06-26T09:08:46;26.60;99.90
4757;DHT22;2392;52.578;13.426;2023-06-26T09:11:13;26.70;99.90
4757;DHT22;2392;52.578;13.426;2023-06-26T09:13:41;26.70;99.90
4757;DHT22;2392;52.578;13.426;2023-06-26T09:16:09;26.70;99.90
4757;DHT22;2392;52.578;13.426;2023-06-26T09:18:36;26.80;99.90
4757;DHT22;2392;52.578;13.426;2023-06-26T09:21:06;26.90;99.90
4757;DHT22;2392;52.578;13.426;2023-06-26T09:23:34;26.90;99.90
4757;DHT22;2392;52.578;13.426;2023-06-26T09:26:04;27.00;99.90
4757;DHT22;2392;52.578;13.426;2023-06-26T09:28:32;27.00;99.90
4757;DHT22;2392;52.578;13.426;2023-06-26T09:31:04;27.10;99.90
4757;DHT22;2392;52.578;13.426;2023-06-26T09:33:34;27.20;99.90
4757;DHT22;2392;52.578;13.426;2023-06-26T09:36:05;27.20;99.90
4757;DHT22;2392;52.578;13.426;2023-06-26T09:38:33;27.20;99.90
4757;DHT22;2392;52.578;13.426;2023-06-26T09:41:00;27.20;99.90
4757;DHT22;2392;52.578;13.426;2023-06-26T09:43:29;27.30;99.90
4757;DHT22;2392;52.578;13.426;2023-06-26T09:45:56;27.20;99.90
4757;DHT22;2392;52.578;13.426;2023-06-26T09:48:24;27.30;99.90
4757;DHT22;2392;52.578;13.426;2023-06-26T09:50:51;27.40;99.90
4757;DHT22;2392;52.578;13.426;2023-06-26T09:53:18;27.50;99.90
4757;DHT22;2392;52.578;13.426;2023-06-26T09:55:46;27.60;99.90
4757;DHT22;2392;52.578;13.426;2023-06-26T09:58:13;27.70;99.90
4757;DHT22;2392;52.578;13.426;2023-06-26T10:00:42;27.70;99.90
4757;DHT22;2392;52.578;13.426;2023-06-26T10:03:10;27.70;99.90
4757;DHT22;2392;52.578;13.426;2023-06-26T10:05:38;27.80;99.90
4757;DHT22;2392;52.578;13.426;2023-06-26T10:08:05;27.90;99.90
4757;DHT22;2392;52.578;13.426;2023-06-26T10:10:35;27.90;99.90
4757;DHT22;2392;52.578;13.426;2023-06-26T10:13:07;27.90;99.90
4757;DHT22;2392;52.578;13.426;2023-06-26T10:15:36;27.90;99.90
4757;DHT22;2392;52.578;13.426;2023-06-26T10:18:05;28.00;99.90
4757;DHT22;2392;52.578;13.426;2023-06-26T10:20:32;28.10;99.90
4757;DHT22;2392;52.578;13.426;2023-06-26T10:23:01;28.10;99.90
4757;DHT22;2392;52.578;13.426;2023-06-26T10:25:30;28.30;99.40
4757;DHT22;2392;52.578;13.426;2023-06-26T10:28:00;28.40;99.90
4757;DHT22;2392;52.578;13.426;2023-06-26T10:30:31;28.60;99.90
4757;DHT22;2392;52.578;13.426;2023-06-26T10:32:59;28.80;99.60
4757;DHT22;2392;52.578;13.426;2023-06-26T10:35:30;28.90;99.90
4757;DHT22;2392;52.578;13.426;2023-06-26T10:38:01;29.20;99.00
4757;DHT22;2392;52.578;13.426;2023-06-26T10:40:40;29.60;98.00
4757;DHT22;2392;52.578;13.426;2023-06-26T10:43:08;30.20;97.70
4757;DHT22;2392;52.578;13.426;2023-06-26T10:45:37;30.80;96.90
4757;DHT22;2392;52.578;13.426;2023-06-26T10:48:09;31.50;96.00
4757;DHT22;2392;52.578;13.426;2023-06-26T10:50:37;32.30;94.40
4757;DHT22;2392;52.578;13.426;2023-06-26T10:53:09;32.90;93.50
4757;DHT22;2392;52.578;13.426;2023-06-26T10:55:36;33.20;92.30
4757;DHT22;2392;52.578;13.426;2023-06-26T10:58:03;33.50;91.50
4757;DHT22;2392;52.578;13.426;2023-06-26T11:00:30;34.00;91.50
4757;DHT22;2392;52.578;13.426;2023-06-26T11:02:58;34.70;90.80
4757;DHT22;2392;52.578;13.426;2023-06-26T11:05:27;35.40;90.00
4757;DHT22;2392;52.578;13.426;2023-06-26T11:08:06;36.20;87.50
4757;DHT22;2392;52.578;13.426;2023-06-26T11:10:54;37.10;82.60
4757;DHT22;2392;52.578;13.426;2023-06-26T11:13:27;37.00;81.20
4757;DHT22;2392;52.578;13.426;2023-06-26T11:15:54;36.80;79.40
4757;DHT22;2392;52.578;13.426;2023-06-26T11:18:24;37.10;79.30
4757;DHT22;2392;52.578;13.426;2023-06-26T11:20:51;37.10;75.70
4757;DHT22;2392;52.578;13.426;2023-06-26T11:23:22;37.30;75.80
4757;DHT22;2392;52.578;13.426;2023-06-26T11:25:50;36.00;76.60
4757;DHT22;2392;52.578;13.426;2023-06-26T11:28:17;34.50;78.20
4757;DHT22;2392;52.578;13.426;2023-06-26T11:30:44;33.00;80.50
4757;DHT22;2392;52.578;13.426;2023-06-26T11:33:11;32.20;83.50
4757;DHT22;2392;52.578;13.426;2023-06-26T11:35:38;31.70;85.30
4757;DHT22;2392;52.578;13.426;2023-06-26T11:38:05;31.50;85.00
4757;DHT22;2392;52.578;13.426;2023-06-26T11:40:36;31.20;87.70
4757;DHT22;2392;52.578;13.426;2023-06-26T11:43:03;30.90;87.30
4757;DHT22;2392;52.578;13.426;2023-06-26T11:45:31;30.80;88.20
4757;DHT22;2392;52.578;13.426;2023-06-26T11:47:59;30.60;89.00
4757;DHT22;2392;52.578;13.426;2023-06-26T11:50:27;30.60;90.10
4757;DHT22;2392;52.578;13.426;2023-06-26T11:52:55;30.80;90.20
4757;DHT22;2392;52.578;13.426;2023-06-26T11:55:23;30.90;89.40
4757;DHT22;2392;52.578;13.426;2023-06-26T11:57:53;31.00;89.30
4757;DHT22;2392;52.578;13.426;2023-06-26T12:00:21;31.10;90.10
4757;DHT22;2392;52.578;13.426;2023-06-26T12:02:49;31.10;88.80
4757;DHT22;2392;52.578;13.426;2023-06-26T12:05:17;31.10;86.70
4757;DHT22;2392;52.578;13.426;2023-06-26T12:07:47;31.10;86.70
4757;DHT22;2392;52.578;13.426;2023-06-26T12:10:15;31.10;86.30
4757;DHT22;2392;52.578;13.426;2023-06-26T12:12:43;31.10;85.90
4757;DHT22;2392;52.578;13.426;2023-06-26T12:15:16;31.10;86.10
4757;DHT22;2392;52.578;13.426;2023-06-26T12:17:43;31.10;86.10
4757;DHT22;2392;52.578;13.426;2023-06-26T12:20:21;31.20;86.60
4757;DHT22;2392;52.578;13.426;2023-06-26T12:22:48;31.10;86.80
4757;DHT22;2392;52.578;13.426;2023-06-26T12:25:20;31.20;86.10
4757;DHT22;2392;52.578;13.426;2023-06-26T12:27:48;31.20;86.00
4757;DHT22;2392;52.578;13.426;2023-06-26T12:30:17;31.20;86.60
4757;DHT22;2392;52.578;13.426;2023-06-26T12:32:47;31.30;86.80
4757;DHT22;2392;52.578;13.426;2023-06-26T12:35:14;31.30;86.70
4757;DHT22;2392;52.578;13.426;2023-06-26T12:37:42;31.40;85.60
4757;DHT22;2392;52.578;13.426;2023-06-26T12:40:20;31.50;86.70
4757;DHT22;2392;52.578;13.426;2023-06-26T12:42:48;31.60;86.50
4757;DHT22;2392;52.578;13.426;2023-06-26T12:45:17;31.50;83.80
4757;DHT22;2392;52.578;13.426;2023-06-26T12:47:45;31.50;85.00
4757;DHT22;2392;52.578;13.426;2023-06-26T12:50:14;31.50;84.60
4757;DHT22;2392;52.578;13.426;2023-06-26T12:52:42;31.60;84.70
4757;DHT22;2392;52.578;13.426;2023-06-26T12:55:09;31.60;84.40
4757;DHT22;2392;52.578;13.426;2023-06-26T12:57:36;31.70;84.90
4757;DHT22;2392;52.578;13.426;2023-06-26T13:00:04;31.70;85.10
4757;DHT22;2392;52.578;13.426;2023-06-26T13:02:32;31.70;83.90
4757;DHT22;2392;52.578;13.426;2023-06-26T13:04:59;31.60;84.00
4757;DHT22;2392;52.578;13.426;2023-06-26T13:07:26;31.40;83.80
4757;DHT22;2392;52.578;13.426;2023-06-26T13:09:53;31.40;84.90
4757;DHT22;2392;52.578;13.426;2023-06-26T13:12:21;31.20;85.50
4757;DHT22;2392;52.578;13.426;2023-06-26T13:14:48;31.20;85.60
4757;DHT22;2392;52.578;13.426;2023-06-26T13:17:15;31.10;85.70
4757;DHT22;2392;52.578;13.426;2023-06-26T13:19:43;31.10;85.70
4757;DHT22;2392;52.578;13.426;2023-06-26T13:22:10;30.90;86.30
4757;DHT22;2392;52.578;13.426;2023-06-26T13:24:37;30.80;85.90
4757;DHT22;2392;52.578;13.426;2023-06-26T13:27:05;30.60;86.40
4757;DHT22;2392;52.578;13.426;2023-06-26T13:29:32;30.50;86.60
4757;DHT22;2392;52.578;13.426;2023-06-26T13:31:59;30.30;86.40
4757;DHT22;2392;52.578;13.426;2023-06-26T13:34:27;30.20;86.60
4757;DHT22;2392;52.578;13.426;2023-06-26T13:36:56;30.10;87.10
4757;DHT22;2392;52.578;13.426;2023-06-26T13:39:25;30.00;86.90
4757;DHT22;2392;52.578;13.426;2023-06-26T13:41:52;30.00;87.60
4757;DHT22;2392;52.578;13.426;2023-06-26T13:44:19;29.90;87.60
4757;DHT22;2392;52.578;13.426;2023-06-26T13:46:46;29.80;88.40
4757;DHT22;2392;52.578;13.426;2023-06-26T13:49:13;29.70;87.50
4757;DHT22;2392;52.578;13.426;2023-06-26T13:51:40;29.70;88.40
4757;DHT22;2392;52.578;13.426;2023-06-26T13:54:13;29.60;88.50
4757;DHT22;2392;52.578;13.426;2023-06-26T13:56:40;29.60;88.90
4757;DHT22;2392;52.578;13.426;2023-06-26T13:59:07;29.60;89.30
4757;DHT22;2392;52.578;13.426;2023-06-26T14:01:34;29.50;88.70
4757;DHT22;2392;52.578;13.426;2023-06-26T14:04:01;29.50;88.70
4757;DHT22;2392;52.578;13.426;2023-06-26T14:06:28;29.50;89.00
4757;DHT22;2392;52.578;13.426;2023-06-26T14:08:58;29.50;89.10
4757;DHT22;2392;52.578;13.426;2023-06-26T14:11:26;29.40;88.90
4757;DHT22;2392;52.578;13.426;2023-06-26T14:13:53;29.30;89.10
4757;DHT22;2392;52.578;13.426;2023-06-26T14:16:20;29.30;89.20
4757;DHT22;2392;52.578;13.426;2023-06-26T14:18:47;29.20;89.00
4757;DHT22;2392;52.578;13.426;2023-06-26T14:21:15;29.20;90.00
4757;DHT22;2392;52.578;13.426;2023-06-26T14:23:42;29.10;90.70
4757;DHT22;2392;52.578;13.426;2023-06-26T14:26:10;28.90;92.60
4757;DHT22;2392;52.578;13.426;2023-06-26T14:28:39;28.70;94.80
4757;DHT22;2392;52.578;13.426;2023-06-26T14:31:06;28.20;99.90
4757;DHT22;2392;52.578;13.426;2023-06-26T14:33:33;26.60;99.90
4757;DHT22;2392;52.578;13.426;2023-06-26T14:36:00;25.30;99.90
4757;DHT22;2392;52.578;13.426;2023-06-26T14:38:27;24.40;99.90
4757;DHT22;2392;52.578;13.426;2023-06-26T14:40:54;23.50;99.90
4757;DHT22;2392;52.578;13.426;2023-06-26T14:43:21;23.10;99.90
4757;DHT22;2392;52.578;13.426;2023-06-26T14:45:50;22.70;99.90
4757;DHT22;2392;52.578;13.426;2023-06-26T14:48:17;22.30;99.90
4757;DHT22;2392;52.578;13.426;2023-06-26T14:50:45;22.10;99.90
4757;DHT22;2392;52.578;13.426;2023-06-26T14:53:12;21.90;99.90
4757;DHT22;2392;52.578;13.426;2023-06-26T14:55:39;21.80;99.90
4757;DHT22;2392;52.578;13.426;2023-06-26T14:58:06;21.80;99.90
4757;DHT22;2392;52.578;13.426;2023-06-26T15:00:33;21.80;99.90
4757;DHT22;2392;52.578;13.426;2023-06-26T15:03:01;21.80;99.90
4757;DHT22;2392;52.578;13.426;2023-06-26T15:05:28;21.80;99.90
4757;DHT22;2392;52.578;13.426;2023-06-26T15:07:55;21.80;99.90
4757;DHT22;2392;52.578;13.426;2023-06-26T15:10:22;21.80;99.90
4757;DHT22;2392;52.578;13.426;2023-06-26T15:12:49;21.80;99.90
4757;DHT22;2392;52.578;13.426;2023-06-26T15:15:16;21.50;99.90
4757;DHT22;2392;52.578;13.426;2023-06-26T15:17:43;21.20;99.90
4757;DHT22;2392;52.578;13.426;2023-06-26T15:20:11;21.10;99.90
4757;DHT22;2392;52.578;13.426;2023-06-26T15:22:38;21.00;99.90
4757;DHT22;2392;52.578;13.426;2023-06-26T15:25:07;20.90;99.90
4757;DHT22;2392;52.578;13.426;2023-06-26T15:27:34;20.80;99.90
4757;DHT22;2392;52.578;13.426;2023-06-26T15:30:01;20.80;99.90
4757;DHT22;2392;52.578;13.426;2023-06-26T15:32:28;20.80;99.90
4757;DHT22;2392;52.578;13.426;2023-06-26T15:34:55;20.80;99.90
4757;DHT22;2392;52.578;13.426;2023-06-26T15:37:24;20.80;99.90
4757;DHT22;2392;52.578;13.426;2023-06-26T15:39:51;21.00;99.90
4757;DHT22;2392;52.578;13.426;2023-06-26T15:42:18;21.00;99.90
4757;DHT22;2392;52.578;13.426;2023-06-26T15:44:45;21.10;99.90
4757;DHT22;2392;52.578;13.426;2023-06-26T15:47:12;21.10;99.90
4757;DHT22;2392;52.578;13.426;2023-06-26T15:49:39;21.20;99.90